Time;durP1;ratioP1;P1;durP2;ratioP2;P2;SDS_P1;SDS_P2;PMS_P1;PMS_P2;Temp;Humidity;BMP_temperature;BMP_pressure;BME280_temperature;BME280_humidity;BME280_pressure;Samples;Min_cycle;Max_cycle;Signal;HPM_P1;HPM_P2
2022/04/10 00:00:36;;;;;;;4.43;2.78;;;2.20;99.90;;;;;;4999875;28;20031;-33
2022/04/10 00:03:02;;;;;;;2.38;2.05;;;2.10;99.90;;;;;;5000344;28;20065;-33
2022/04/10 00:05:28;;;;;;;2.85;2.05;;;2.10;99.90;;;;;;4998372;28;20717;-34
2022/04/10 00:07:54;;;;;;;3.03;2.72;;;2.10;99.90;;;;;;5000888;28;20033;-33
2022/04/10 00:10:19;;;;;;;3.55;2.65;;;2.20;99.90;;;;;;4995915;28;20491;-35
2022/04/10 00:12:45;;;;;;;3.45;2.53;;;2.20;99.90;;;;;;4993554;28;20033;-34
2022/04/10 00:15:11;;;;;;;8.00;3.80;;;2.20;99.90;;;;;;4997728;28;20037;-34
2022/04/10 00:17:38;;;;;;;7.30;3.33;;;2.20;99.90;;;;;;4952482;28;1121773;-34
2022/04/10 00:20:05;;;;;;;1.73;1.33;;;2.20;99.90;;;;;;5003212;28;20410;-34
2022/04/10 00:22:30;;;;;;;2.45;2.00;;;2.10;99.90;;;;;;4996354;28;20037;-34
2022/04/10 00:24:56;;;;;;;2.85;2.42;;;2.10;99.90;;;;;;4997418;28;20030;-35
2022/04/10 00:27:22;;;;;;;3.33;2.70;;;2.10;99.90;;;;;;4995892;28;20045;-33
2022/04/10 00:29:48;;;;;;;3.35;2.72;;;2.10;99.90;;;;;;4995787;28;20053;-32
2022/04/10 00:32:14;;;;;;;4.28;2.50;;;2.10;99.90;;;;;;4994373;28;20038;-34
2022/04/10 00:34:39;;;;;;;4.68;2.85;;;2.20;99.90;;;;;;4995620;28;20042;-32
2022/04/10 00:37:05;;;;;;;3.80;2.40;;;2.20;99.90;;;;;;5000002;28;20073;-33
2022/04/10 00:39:31;;;;;;;3.00;2.40;;;2.20;99.90;;;;;;5000814;28;20044;-34
2022/04/10 00:41:56;;;;;;;4.45;3.13;;;2.10;99.90;;;;;;4996927;28;20042;-34
2022/04/10 00:44:22;;;;;;;8.18;3.22;;;2.20;99.90;;;;;;4995620;28;20030;-33
2022/04/10 00:46:50;;;;;;;3.97;2.58;;;2.20;99.90;;;;;;4997175;28;20908;-34
2022/04/10 00:49:16;;;;;;;2.90;2.58;;;2.20;99.90;;;;;;4995298;28;20041;-33
2022/04/10 00:51:44;;;;;;;4.95;2.58;;;2.30;99.90;;;;;;4996381;28;20034;-33
2022/04/10 00:54:26;;;;;;;4.75;2.30;;;2.20;99.90;;;;;;5001102;28;20022;-33
2022/04/10 00:56:55;;;;;;;3.72;2.70;;;2.30;99.90;;;;;;4993870;28;20060;-34
2022/04/10 00:59:21;;;;;;;;;;;2.20;99.90;;;;;;4996208;28;20053;-33
2022/04/10 01:01:47;;;;;;;2.25;2.10;;;2.20;99.90;;;;;;4997349;28;20005;-35
2022/04/10 01:04:14;;;;;;;3.65;2.70;;;2.10;99.90;;;;;;4997960;28;20030;-34
2022/04/10 01:06:40;;;;;;;2.88;2.67;;;2.20;99.90;;;;;;4998521;28;20044;-35
2022/04/10 01:09:07;;;;;;;3.22;2.47;;;2.30;99.90;;;;;;5000022;28;20053;-35
2022/04/10 01:11:33;;;;;;;2.60;2.40;;;2.30;99.90;;;;;;4999985;28;20030;-33
2022/04/10 01:14:00;;;;;;;3.88;2.72;;;2.30;99.90;;;;;;5000053;28;20037;-35
2022/04/10 01:16:26;;;;;;;3.53;3.00;;;2.30;99.90;;;;;;4998050;28;20034;-35
2022/04/10 01:18:52;;;;;;;2.97;2.25;;;2.30;99.90;;;;;;4997674;28;20057;-35
2022/04/10 01:21:23;;;;;;;5.22;3.00;;;2.30;99.90;;;;;;4998467;28;20045;-35
2022/04/10 01:23:51;;;;;;;2.50;2.17;;;2.30;99.90;;;;;;5003409;28;20041;-35
2022/04/10 01:26:16;;;;;;;3.58;2.35;;;2.30;99.90;;;;;;5000247;28;20049;-36
2022/04/10 01:28:58;;;;;;;3.75;2.25;;;2.40;99.90;;;;;;4998477;28;20026;-36
2022/04/10 01:31:25;;;;;;;3.08;2.10;;;2.30;99.90;;;;;;5004096;28;20313;-35
2022/04/10 01:33:51;;;;;;;4.38;2.63;;;2.40;99.90;;;;;;4998160;28;20084;-36
2022/04/10 01:36:17;;;;;;;4.82;2.97;;;2.30;99.90;;;;;;5003453;28;20084;-36
2022/04/10 01:38:44;;;;;;;2.67;2.42;;;2.30;99.90;;;;;;5002249;28;20046;-34
2022/04/10 01:41:14;;;;;;;2.88;2.50;;;2.30;99.90;;;;;;5008633;28;20578;-35
2022/04/10 01:43:46;;;;;;;4.60;2.65;;;2.30;99.90;;;;;;5004251;28;20546;-36
2022/04/10 01:46:12;;;;;;;3.53;2.50;;;2.30;99.90;;;;;;5006829;28;20260;-36
2022/04/10 01:48:38;;;;;;;2.17;1.98;;;2.30;99.90;;;;;;5000959;28;20119;-36
2022/04/10 01:51:04;;;;;;;3.45;2.42;;;2.30;99.90;;;;;;5006774;28;20061;-37
2022/04/10 01:53:30;;;;;;;2.30;2.08;;;2.30;99.90;;;;;;5005764;28;20056;-36
2022/04/10 01:55:56;;;;;;;3.55;2.67;;;2.30;99.90;;;;;;4997103;28;20022;-36
2022/04/10 01:58:21;;;;;;;5.28;2.85;;;2.40;99.90;;;;;;5001465;28;20030;-36
2022/04/10 02:00:47;;;;;;;8.13;3.35;;;2.30;99.90;;;;;;5008500;28;20025;-36
2022/04/10 02:03:12;;;;;;;8.88;4.85;;;2.30;99.90;;;;;;5002787;28;20026;-35
2022/04/10 02:05:38;;;;;;;33.55;15.27;;;2.30;99.90;;;;;;5005933;28;20030;-35
2022/04/10 02:08:04;;;;;;;25.90;12.73;;;2.30;99.90;;;;;;5005781;28;20386;-36
2022/04/10 02:10:29;;;;;;;17.42;6.40;;;2.30;99.90;;;;;;5005037;28;20046;-36
2022/04/10 02:12:55;;;;;;;18.60;10.75;;;2.30;99.90;;;;;;5003250;28;20034;-36
2022/04/10 02:15:21;;;;;;;24.77;14.07;;;2.30;99.90;;;;;;5006458;28;20133;-35
2022/04/10 02:17:46;;;;;;;24.00;12.45;;;2.30;99.90;;;;;;5002289;28;20423;-36
2022/04/10 02:20:12;;;;;;;13.98;6.10;;;2.30;99.90;;;;;;5006275;28;20105;-35
2022/04/10 02:22:37;;;;;;;7.15;5.07;;;2.30;99.90;;;;;;5002952;28;20029;-36
2022/04/10 02:25:04;;;;;;;3.38;2.70;;;2.30;99.90;;;;;;5006353;28;20044;-36
2022/04/10 02:27:29;;;;;;;4.60;3.53;;;2.30;99.90;;;;;;5004996;28;20036;-37
2022/04/10 02:29:55;;;;;;;6.07;3.97;;;2.30;99.90;;;;;;5003035;28;20752;-36
2022/04/10 02:32:20;;;;;;;4.53;2.63;;;2.30;99.90;;;;;;5003632;28;20042;-36
2022/04/10 02:34:46;;;;;;;3.42;3.10;;;2.20;99.90;;;;;;5004814;28;20116;-34
2022/04/10 02:37:11;;;;;;;4.00;2.75;;;2.20;99.90;;;;;;5002948;28;20108;-37
2022/04/10 02:39:37;;;;;;;2.47;1.75;;;2.10;99.90;;;;;;5005771;28;20740;-35
2022/04/10 02:42:03;;;;;;;3.58;2.50;;;2.10;99.90;;;;;;4987028;28;20093;-36
2022/04/10 02:44:29;;;;;;;4.72;3.10;;;2.10;99.90;;;;;;5003238;28;20033;-36
2022/04/10 02:46:54;;;;;;;2.35;1.90;;;2.10;99.90;;;;;;5008174;28;20037;-36
2022/04/10 02:49:20;;;;;;;3.17;2.30;;;2.10;99.90;;;;;;5004286;28;20541;-37
2022/04/10 02:51:49;;;;;;;2.17;1.98;;;2.00;99.90;;;;;;5004773;28;20510;-35
2022/04/10 02:54:15;;;;;;;4.53;2.72;;;2.10;99.90;;;;;;5002973;28;20100;-36
2022/04/10 02:56:41;;;;;;;2.30;2.10;;;2.10;99.90;;;;;;5006241;28;20406;-36
2022/04/10 02:59:08;;;;;;;2.38;2.08;;;2.10;99.90;;;;;;5002636;28;20026;-34
2022/04/10 03:01:34;;;;;;;2.58;2.38;;;2.20;99.90;;;;;;5001164;28;20062;-36
2022/04/10 03:03:59;;;;;;;2.45;2.25;;;2.10;99.90;;;;;;5004579;28;20046;-36
2022/04/10 03:06:25;;;;;;;1.83;1.73;;;2.20;99.90;;;;;;5006149;28;20030;-36
2022/04/10 03:08:50;;;;;;;3.55;1.98;;;2.10;99.90;;;;;;5004459;28;20495;-36
2022/04/10 03:11:16;;;;;;;4.03;2.72;;;2.10;99.90;;;;;;5004712;28;20037;-36
2022/04/10 03:13:42;;;;;;;3.60;2.22;;;2.10;99.90;;;;;;5005330;28;20670;-35
2022/04/10 03:16:08;;;;;;;3.13;2.10;;;2.10;99.90;;;;;;5008172;28;20029;-36
2022/04/10 03:18:33;;;;;;;7.93;2.50;;;2.10;99.90;;;;;;5004860;28;20050;-35
2022/04/10 03:20:59;;;;;;;3.20;2.60;;;2.10;99.90;;;;;;5002016;28;20042;-34
2022/04/10 03:23:25;;;;;;;2.55;2.15;;;2.10;99.90;;;;;;5002251;28;20944;-36
2022/04/10 03:25:50;;;;;;;2.92;1.90;;;2.10;99.90;;;;;;5002190;28;20256;-36
2022/04/10 03:28:16;;;;;;;3.75;2.58;;;2.10;99.90;;;;;;5005099;28;20042;-35
2022/04/10 03:30:42;;;;;;;2.40;1.95;;;2.00;99.90;;;;;;4999607;28;20503;-34
2022/04/10 03:33:07;;;;;;;3.17;2.50;;;2.00;99.90;;;;;;5007198;28;20033;-35
2022/04/10 03:35:33;;;;;;;2.47;2.28;;;2.00;99.90;;;;;;4999903;28;20182;-36
2022/04/10 03:37:59;;;;;;;3.63;2.80;;;2.00;99.90;;;;;;5007418;28;20060;-34
2022/04/10 03:40:24;;;;;;;3.25;2.25;;;2.00;99.90;;;;;;5004775;28;20030;-36
2022/04/10 03:42:50;;;;;;;3.60;1.90;;;1.90;99.90;;;;;;5006124;28;20037;-36
2022/04/10 03:45:15;;;;;;;2.78;2.00;;;1.80;99.90;;;;;;5001389;28;20036;-35
2022/04/10 03:47:41;;;;;;;2.13;1.98;;;1.80;99.90;;;;;;5005959;28;20550;-35
2022/04/10 03:50:07;;;;;;;2.17;1.83;;;1.80;99.90;;;;;;5004485;28;20030;-36
2022/04/10 03:52:33;;;;;;;2.65;2.15;;;1.80;99.90;;;;;;5002820;28;20628;-35
2022/04/10 03:54:58;;;;;;;4.97;2.60;;;1.80;99.90;;;;;;5004728;28;20036;-36
2022/04/10 03:57:24;;;;;;;3.13;2.80;;;1.70;99.90;;;;;;5002683;28;20026;-36
2022/04/10 03:59:49;;;;;;;2.38;2.17;;;1.60;99.90;;;;;;5007155;28;20383;-36
2022/04/10 04:02:16;;;;;;;3.00;2.40;;;1.70;99.90;;;;;;5000902;28;20034;-36
2022/04/10 04:04:42;;;;;;;4.75;2.33;;;1.70;99.90;;;;;;5000493;28;20572;-34
2022/04/10 04:07:08;;;;;;;2.97;2.67;;;1.70;99.90;;;;;;5005014;28;20038;-36
2022/04/10 04:09:33;;;;;;;6.15;2.60;;;1.70;99.90;;;;;;5004234;28;20164;-35
2022/04/10 04:11:59;;;;;;;3.45;2.53;;;1.70;99.90;;;;;;5002908;28;20034;-35
2022/04/10 04:14:24;;;;;;;3.22;2.50;;;1.70;99.90;;;;;;5003601;28;20068;-36
2022/04/10 04:16:50;;;;;;;4.70;2.35;;;1.70;99.90;;;;;;5003823;28;20686;-35
2022/04/10 04:19:16;;;;;;;3.78;2.42;;;1.60;99.90;;;;;;5001033;28;20510;-35
2022/04/10 04:21:41;;;;;;;6.57;2.88;;;1.70;99.90;;;;;;5000197;28;20092;-36
2022/04/10 04:24:07;;;;;;;10.35;4.55;;;1.60;99.90;;;;;;5002547;28;20045;-36
2022/04/10 04:26:33;;;;;;;6.10;2.75;;;1.70;99.90;;;;;;5004072;28;20047;-36
2022/04/10 04:28:58;;;;;;;5.35;4.07;;;1.70;99.90;;;;;;5002343;28;20034;-35
2022/04/10 04:31:24;;;;;;;4.38;2.92;;;1.70;99.90;;;;;;5001801;28;20038;-34
2022/04/10 04:33:49;;;;;;;11.40;5.40;;;1.70;99.90;;;;;;5006236;28;20042;-36
2022/04/10 04:36:16;;;;;;;14.90;6.28;;;1.80;99.90;;;;;;4998448;28;20033;-36
2022/04/10 04:38:42;;;;;;;14.40;8.18;;;1.80;99.90;;;;;;4999019;28;20065;-35
2022/04/10 04:41:10;;;;;;;8.02;5.28;;;1.80;99.90;;;;;;5004811;28;20485;-36
2022/04/10 04:43:36;;;;;;;9.13;5.35;;;1.80;99.90;;;;;;5007182;28;20505;-34
2022/04/10 04:46:02;;;;;;;4.85;3.45;;;1.90;99.90;;;;;;5003153;28;20033;-35
2022/04/10 04:48:27;;;;;;;5.00;3.45;;;1.90;99.90;;;;;;5003930;28;20026;-36
2022/04/10 04:50:53;;;;;;;2.88;2.40;;;1.90;99.90;;;;;;5003851;28;20439;-34
2022/04/10 04:53:18;;;;;;;3.08;2.70;;;1.90;99.90;;;;;;5003068;28;20033;-35
2022/04/10 04:55:44;;;;;;;3.78;3.22;;;1.90;99.90;;;;;;5004488;28;20026;-35
2022/04/10 04:58:10;;;;;;;4.47;2.83;;;2.00;99.90;;;;;;5005893;28;20014;-35
2022/04/10 05:00:35;;;;;;;2.88;2.60;;;2.00;99.90;;;;;;5001335;28;20222;-35
2022/04/10 05:03:01;;;;;;;4.65;2.28;;;1.90;99.90;;;;;;5003291;28;20552;-35
2022/04/10 05:05:27;;;;;;;8.65;3.75;;;1.90;99.90;;;;;;5002922;28;20554;-35
2022/04/10 05:07:52;;;;;;;6.03;3.45;;;1.90;99.90;;;;;;5008399;28;20095;-35
2022/04/10 05:10:18;;;;;;;4.22;2.50;;;1.90;99.90;;;;;;5004250;28;22040;-36
2022/04/10 05:12:44;;;;;;;4.32;3.00;;;1.90;99.90;;;;;;5005178;28;20070;-36
2022/04/10 05:15:09;;;;;;;3.00;2.13;;;1.90;99.90;;;;;;5003515;28;20030;-35
2022/04/10 05:17:36;;;;;;;5.80;2.95;;;1.90;99.90;;;;;;5006471;28;20046;-34
2022/04/10 05:20:04;;;;;;;4.22;3.00;;;1.90;99.90;;;;;;5004669;28;20026;-35
2022/04/10 05:22:29;;;;;;;4.15;2.78;;;1.90;99.90;;;;;;5005589;28;20525;-36
2022/04/10 05:24:55;;;;;;;2.67;2.45;;;2.00;99.90;;;;;;5008460;28;20033;-35
2022/04/10 05:27:21;;;;;;;2.35;2.15;;;1.90;99.90;;;;;;5007204;28;20038;-36
2022/04/10 05:29:46;;;;;;;3.58;2.78;;;1.90;99.90;;;;;;5006297;28;20434;-35
2022/04/10 05:32:12;;;;;;;2.75;2.15;;;1.90;99.90;;;;;;5002431;28;20080;-35
2022/04/10 05:34:38;;;;;;;2.70;2.30;;;1.90;99.90;;;;;;5006714;28;20026;-35
2022/04/10 05:37:03;;;;;;;3.15;2.42;;;1.90;99.90;;;;;;5004071;28;20053;-36
2022/04/10 05:39:29;;;;;;;4.28;2.33;;;1.90;99.90;;;;;;5006017;28;20026;-35
2022/04/10 05:41:55;;;;;;;2.78;2.38;;;1.90;99.90;;;;;;5003400;28;20022;-34
2022/04/10 05:44:20;;;;;;;1.13;1.05;;;1.90;99.90;;;;;;5006823;28;20022;-36
2022/04/10 05:46:46;;;;;;;2.42;2.25;;;2.00;99.90;;;;;;5004567;28;21474;-35
2022/04/10 05:49:12;;;;;;;3.17;2.72;;;2.00;99.90;;;;;;5011253;28;20033;-36
2022/04/10 05:51:37;;;;;;;3.95;2.78;;;2.10;99.90;;;;;;5005572;28;20096;-34
2022/04/10 05:54:03;;;;;;;1.55;1.42;;;2.20;99.90;;;;;;5005626;28;20383;-36
2022/04/10 05:56:29;;;;;;;3.17;2.40;;;2.10;99.90;;;;;;5006070;28;20026;-36
2022/04/10 05:58:54;;;;;;;3.40;3.10;;;2.10;99.90;;;;;;5007337;28;20029;-35
2022/04/10 06:01:20;;;;;;;4.88;2.72;;;2.10;99.90;;;;;;5001774;28;20034;-35
2022/04/10 06:03:46;;;;;;;6.28;2.97;;;2.20;99.90;;;;;;5006962;28;20475;-34
2022/04/10 06:06:11;;;;;;;2.80;2.30;;;2.30;99.90;;;;;;5000053;28;20068;-36
2022/04/10 06:08:37;;;;;;;4.97;2.70;;;2.40;99.90;;;;;;5002858;28;20026;-35
2022/04/10 06:11:03;;;;;;;5.05;3.20;;;2.30;99.90;;;;;;5004130;28;20457;-35
2022/04/10 06:13:29;;;;;;;4.80;2.15;;;2.40;99.90;;;;;;5005964;28;20114;-36
2022/04/10 06:15:54;;;;;;;5.80;3.13;;;2.40;99.90;;;;;;5007540;28;20030;-35
2022/04/10 06:18:20;;;;;;;5.40;2.67;;;2.50;99.90;;;;;;5005987;28;20096;-37
2022/04/10 06:20:45;;;;;;;2.10;1.77;;;2.50;99.90;;;;;;5006772;28;20478;-36
2022/04/10 06:23:12;;;;;;;3.50;2.55;;;2.60;99.90;;;;;;4996931;28;20693;-36
2022/04/10 06:25:40;;;;;;;5.32;3.13;;;2.70;99.90;;;;;;4998752;28;20033;-35
2022/04/10 06:28:06;;;;;;;2.53;2.33;;;2.80;99.90;;;;;;5005672;28;20018;-35
2022/04/10 06:30:31;;;;;;;5.68;3.35;;;2.90;99.90;;;;;;5004297;28;20034;-34
2022/04/10 06:32:57;;;;;;;2.50;2.30;;;3.10;99.90;;;;;;5003074;28;20026;-36
2022/04/10 06:35:24;;;;;;;2.50;2.30;;;3.20;99.90;;;;;;5003694;28;20048;-36
2022/04/10 06:37:49;;;;;;;3.63;2.92;;;3.30;99.90;;;;;;5004250;28;20038;-36
2022/04/10 06:40:15;;;;;;;3.70;2.17;;;3.40;99.90;;;;;;5004261;28;20034;-36
2022/04/10 06:42:41;;;;;;;2.28;2.08;;;3.50;99.90;;;;;;5003532;28;20100;-37
2022/04/10 06:45:07;;;;;;;3.35;2.28;;;3.60;99.90;;;;;;5007305;28;20033;-35
2022/04/10 06:47:33;;;;;;;3.72;3.33;;;3.60;99.90;;;;;;5001652;28;20610;-35
2022/04/10 06:49:59;;;;;;;3.15;2.60;;;3.80;99.90;;;;;;5006589;28;20125;-36
2022/04/10 06:52:25;;;;;;;3.22;2.92;;;3.90;99.90;;;;;;5003764;28;20044;-34
2022/04/10 06:54:50;;;;;;;4.90;2.97;;;4.00;99.90;;;;;;5003122;28;20030;-35
2022/04/10 06:57:17;;;;;;;1.70;1.60;;;4.10;99.90;;;;;;5003890;28;20422;-34
2022/04/10 06:59:42;;;;;;;3.25;2.80;;;4.20;99.90;;;;;;5004228;28;20040;-35
2022/04/10 07:02:09;;;;;;;2.80;2.60;;;4.30;99.90;;;;;;5005342;28;20403;-35
2022/04/10 07:04:34;;;;;;;10.75;3.22;;;4.30;99.90;;;;;;5002526;28;20037;-36
2022/04/10 07:07:00;;;;;;;2.83;2.63;;;4.20;99.90;;;;;;5005278;28;20022;-36
2022/04/10 07:09:25;;;;;;;4.63;3.35;;;4.10;99.90;;;;;;5002362;28;20034;-36
2022/04/10 07:11:51;;;;;;;2.47;2.28;;;4.00;99.90;;;;;;5008890;28;20057;-36
2022/04/10 07:14:16;;;;;;;5.75;2.42;;;4.00;99.90;;;;;;5002061;28;20030;-36
2022/04/10 07:16:42;;;;;;;8.15;3.22;;;3.90;99.90;;;;;;5002924;28;20057;-36
2022/04/10 07:19:08;;;;;;;5.32;3.40;;;3.80;99.90;;;;;;5003665;28;20034;-37
2022/04/10 07:24:18;;;;;;;3.58;3.10;;;3.80;99.90;;;;;;5000014;28;20037;-35
2022/04/10 07:26:44;;;;;;;7.22;3.85;;;3.90;99.90;;;;;;4999869;28;20030;-34
2022/04/10 07:29:12;;;;;;;6.25;3.78;;;4.00;99.90;;;;;;5001793;28;20030;-35
2022/04/10 07:31:39;;;;;;;4.50;3.72;;;4.10;99.90;;;;;;4980620;28;20038;-37
2022/04/10 07:34:05;;;;;;;1.92;1.80;;;4.40;99.90;;;;;;4999200;28;20135;-36
2022/04/10 07:36:32;;;;;;;1.85;1.65;;;4.60;99.90;;;;;;4997618;28;20026;-36
2022/04/10 07:38:58;;;;;;;3.03;2.33;;;4.80;99.90;;;;;;5001495;28;22234;-36
2022/04/10 07:41:24;;;;;;;4.20;3.42;;;4.80;99.90;;;;;;5001805;28;20048;-35
2022/04/10 07:43:49;;;;;;;3.92;3.50;;;4.80;99.90;;;;;;5000266;28;20034;-35
2022/04/10 07:48:59;;;;;;;1.77;1.65;;;4.70;99.90;;;;;;5001506;28;20517;-36
2022/04/10 07:51:26;;;;;;;6.18;3.15;;;4.90;99.90;;;;;;5001118;28;20026;-36
2022/04/10 07:53:54;;;;;;;3.45;2.63;;;4.90;99.90;;;;;;4999182;28;20083;-36
2022/04/10 07:56:20;;;;;;;3.15;2.60;;;5.10;99.90;;;;;;5002728;28;20030;-35
2022/04/10 07:58:46;;;;;;;2.42;2.22;;;5.20;99.90;;;;;;5002910;28;20125;-36
2022/04/10 08:01:12;;;;;;;2.67;2.20;;;5.10;98.50;;;;;;5001689;28;20477;-35
2022/04/10 08:03:37;;;;;;;4.97;3.08;;;5.30;95.90;;;;;;5000613;28;20037;-36
2022/04/10 08:06:03;;;;;;;6.75;3.10;;;5.40;97.30;;;;;;4999708;28;20076;-36
2022/04/10 08:08:28;;;;;;;5.13;2.88;;;5.60;99.90;;;;;;4999475;28;20022;-35
2022/04/10 08:10:54;;;;;;;1.88;1.77;;;5.90;98.50;;;;;;5002101;28;20065;-34
2022/04/10 08:13:20;;;;;;;2.60;2.40;;;5.90;99.60;;;;;;5000965;28;20502;-35
2022/04/10 08:15:46;;;;;;;3.20;2.75;;;5.80;95.30;;;;;;5000259;28;20029;-35
2022/04/10 08:18:12;;;;;;;4.07;2.97;;;6.00;97.00;;;;;;5004719;28;20054;-34
2022/04/10 08:20:37;;;;;;;2.15;2.05;;;5.80;91.40;;;;;;5001079;28;20119;-36
2022/04/10 08:23:03;;;;;;;2.40;2.20;;;5.70;93.50;;;;;;5001026;28;20111;-36
2022/04/10 08:25:29;;;;;;;2.95;2.55;;;5.90;92.00;;;;;;5001484;28;20025;-35
2022/04/10 08:27:55;;;;;;;2.25;2.03;;;6.10;90.50;;;;;;5001527;28;20055;-36
2022/04/10 08:30:21;;;;;;;1.77;1.65;;;6.10;90.40;;;;;;5004491;28;20557;-34
2022/04/10 08:32:47;;;;;;;2.90;1.60;;;6.30;93.00;;;;;;4995088;28;20483;-34
2022/04/10 08:35:15;;;;;;;2.13;1.95;;;6.20;92.80;;;;;;5000558;28;20032;-35
2022/04/10 08:37:41;;;;;;;4.70;3.40;;;5.80;90.10;;;;;;4997754;28;20026;-35
2022/04/10 08:40:07;;;;;;;5.95;3.00;;;5.90;94.00;;;;;;5004726;28;20104;-34
2022/04/10 08:42:33;;;;;;;3.28;2.80;;;6.10;93.40;;;;;;5004132;28;20493;-36
2022/04/10 08:44:59;;;;;;;2.92;2.45;;;6.00;93.80;;;;;;5003537;28;20113;-36
2022/04/10 08:47:25;;;;;;;2.10;1.95;;;6.00;92.40;;;;;;5005728;28;20113;-35
2022/04/10 08:49:53;;;;;;;5.40;3.22;;;5.90;91.10;;;;;;5005801;28;20029;-34
2022/04/10 08:52:21;;;;;;;3.40;2.70;;;6.40;93.90;;;;;;5003450;28;20660;-35
2022/04/10 08:54:48;;;;;;;3.22;2.10;;;6.70;90.80;;;;;;5006244;28;20042;-36
2022/04/10 08:57:14;;;;;;;2.58;2.30;;;6.40;80.80;;;;;;5004117;28;20018;-35
2022/04/10 08:59:40;;;;;;;4.55;3.22;;;6.20;86.30;;;;;;5002376;28;20038;-34
2022/04/10 09:02:06;;;;;;;3.20;2.95;;;6.50;83.10;;;;;;5008993;28;20060;-36
2022/04/10 09:04:32;;;;;;;2.70;2.35;;;6.90;90.20;;;;;;5004940;28;20065;-34
2022/04/10 09:07:07;;;;;;;3.85;2.05;;;7.10;76.30;;;;;;5004234;28;20038;-35
2022/04/10 09:09:36;;;;;;;4.38;2.90;;;7.10;74.20;;;;;;5002222;28;20096;-35
2022/04/10 09:12:03;;;;;;;2.20;2.10;;;7.40;86.70;;;;;;5002904;28;20026;-35
2022/04/10 09:14:36;;;;;;;2.50;2.30;;;7.40;72.50;;;;;;5003152;28;20036;-33
2022/04/10 09:17:17;;;;;;;2.47;2.30;;;7.10;62.80;;;;;;5006793;28;20042;-36
2022/04/10 09:19:46;;;;;;;3.53;2.40;;;6.90;80.10;;;;;;5004882;28;20501;-35
2022/04/10 09:22:30;;;;;;;2.13;1.90;;;6.90;78.30;;;;;;5006343;28;20192;-36
2022/04/10 09:25:16;;;;;;;4.78;2.55;;;6.70;70.60;;;;;;5004331;28;20097;-36
2022/04/10 09:27:44;;;;;;;1.83;1.73;;;6.60;75.70;;;;;;5010240;28;20033;-36
2022/04/10 09:30:13;;;;;;;2.25;2.00;;;6.60;75.10;;;;;;5002943;28;20253;-36
2022/04/10 09:32:44;;;;;;;3.10;2.25;;;6.60;70.60;;;;;;5003402;28;20558;-36
2022/04/10 09:35:12;;;;;;;2.38;1.92;;;6.70;67.20;;;;;;5007507;28;20457;-34
2022/04/10 09:37:53;;;;;;;2.78;2.40;;;6.70;76.90;;;;;;5004405;28;20521;-36
2022/04/10 09:40:38;;;;;;;2.50;2.13;;;6.90;72.30;;;;;;5004464;28;20037;-36
2022/04/10 09:43:10;;;;;;;3.47;1.90;;;7.10;71.90;;;;;;5006911;28;20718;-36
2022/04/10 09:45:41;;;;;;;3.42;2.30;;;6.90;70.30;;;;;;5003468;28;20037;-36
2022/04/10 09:48:23;;;;;;;2.60;2.40;;;6.80;81.90;;;;;;5003394;28;20038;-36
2022/04/10 09:50:52;;;;;;;3.67;2.28;;;7.30;79.70;;;;;;5002654;28;20061;-35
2022/04/10 09:53:19;;;;;;;2.60;2.40;;;7.30;81.80;;;;;;5006098;28;20022;-33
2022/04/10 09:55:50;;;;;;;2.38;1.73;;;7.00;75.90;;;;;;4999358;28;20035;-34
2022/04/10 09:58:18;;;;;;;4.85;3.22;;;6.80;73.00;;;;;;5008566;28;20034;-35
2022/04/10 10:00:45;;;;;;;1.95;1.83;;;6.90;70.60;;;;;;5002592;28;20057;-35
2022/04/10 10:03:11;;;;;;;1.55;1.45;;;6.70;64.80;;;;;;5002590;28;20488;-34
2022/04/10 10:05:37;;;;;;;1.30;1.20;;;6.70;63.00;;;;;;5006033;28;20065;-34
2022/04/10 10:08:04;;;;;;;1.85;1.75;;;6.80;76.20;;;;;;5006098;28;20040;-35
2022/04/10 10:10:35;;;;;;;4.60;2.33;;;6.80;60.40;;;;;;5007274;28;20113;-36
2022/04/10 10:13:08;;;;;;;3.30;2.40;;;6.80;65.00;;;;;;5006679;28;20044;-34
2022/04/10 10:15:37;;;;;;;1.65;1.55;;;6.80;66.70;;;;;;5004804;28;20105;-35
2022/04/10 10:18:05;;;;;;;2.28;2.17;;;6.80;70.20;;;;;;5003934;28;20515;-35
2022/04/10 10:20:32;;;;;;;1.77;1.67;;;6.60;73.00;;;;;;5005700;28;20090;-35
2022/04/10 10:23:01;;;;;;;2.33;1.70;;;6.60;83.30;;;;;;5000095;28;20042;-35
2022/04/10 10:25:33;;;;;;;1.88;1.77;;;6.70;74.60;;;;;;5003468;28;20668;-34
2022/04/10 10:28:14;;;;;;;2.42;2.20;;;6.60;74.50;;;;;;5003116;28;20037;-35
2022/04/10 10:31:19;;;;;;;3.30;2.17;;;6.70;86.60;;;;;;5000190;28;20030;-34
2022/04/10 10:33:54;;;;;;;4.63;2.25;;;6.50;74.50;;;;;;5003941;28;20030;-34
2022/04/10 10:36:23;;;;;;;5.55;2.30;;;6.40;71.40;;;;;;5006303;28;20026;-33
2022/04/10 10:38:53;;;;;;;4.53;2.28;;;6.30;72.80;;;;;;5006103;28;20029;-34
2022/04/10 10:41:18;;;;;;;1.60;1.50;;;6.50;71.70;;;;;;5003938;28;20026;-35
2022/04/10 10:43:45;;;;;;;2.25;2.05;;;7.00;84.10;;;;;;5008013;28;20394;-34
2022/04/10 10:46:21;;;;;;;2.10;1.90;;;7.30;70.20;;;;;;5005983;28;20025;-34
2022/04/10 10:48:47;;;;;;;4.32;2.45;;;7.70;63.80;;;;;;5004478;28;20021;-34
2022/04/10 10:51:13;;;;;;;2.15;1.58;;;7.60;60.40;;;;;;5005009;28;20399;-34
2022/04/10 10:53:52;;;;;;;2.15;1.67;;;7.30;58.80;;;;;;5002754;28;20033;-34
2022/04/10 10:56:22;;;;;;;4.75;2.00;;;6.80;72.40;;;;;;5003630;28;20030;-34
2022/04/10 10:58:49;;;;;;;3.28;2.10;;;6.40;73.50;;;;;;5005919;28;20021;-34
2022/04/10 11:01:18;;;;;;;1.73;1.63;;;6.40;94.10;;;;;;5002797;28;20759;-34
2022/04/10 11:04:09;;;;;;;2.67;2.10;;;6.40;91.70;;;;;;5004198;28;20442;-34
2022/04/10 11:06:45;;;;;;;2.78;1.90;;;6.50;91.00;;;;;;5004419;28;20061;-34
2022/04/10 11:09:28;;;;;;;2.85;1.80;;;6.70;86.50;;;;;;5006769;28;20029;-33
2022/04/10 11:11:56;;;;;;;2.88;2.10;;;7.00;74.20;;;;;;5004680;28;20041;-35
2022/04/10 11:14:39;;;;;;;2.65;2.38;;;7.30;73.40;;;;;;5001336;28;20053;-35
2022/04/10 11:17:28;;;;;;;2.88;2.08;;;7.50;61.70;;;;;;5003968;28;20099;-35
2022/04/10 11:20:05;;;;;;;1.67;1.58;;;7.30;60.80;;;;;;5008479;28;20080;-35
2022/04/10 11:22:35;;;;;;;1.60;1.50;;;7.30;71.20;;;;;;5007989;28;20487;-35
2022/04/10 11:25:06;;;;;;;1.90;1.70;;;7.40;82.40;;;;;;5008883;28;20084;-34
2022/04/10 11:27:45;;;;;;;1.58;1.45;;;7.50;79.10;;;;;;5006844;28;20029;-34
2022/04/10 11:30:13;;;;;;;2.42;1.85;;;7.50;59.50;;;;;;5004017;28;20600;-36
2022/04/10 11:32:50;;;;;;;2.45;2.05;;;8.00;65.90;;;;;;5002770;28;20036;-35
2022/04/10 11:35:19;;;;;;;2.45;1.75;;;8.50;59.10;;;;;;5004066;28;20065;-36
2022/04/10 11:37:47;;;;;;;1.33;1.33;;;8.20;56.40;;;;;;5003550;28;20031;-36
2022/04/10 11:40:14;;;;;;;1.85;1.60;;;7.70;63.20;;;;;;5003023;28;20037;-35
2022/04/10 11:42:40;;;;;;;3.85;2.22;;;7.20;57.40;;;;;;5003457;28;20041;-33
2022/04/10 11:45:08;;;;;;;2.78;2.00;;;7.10;62.30;;;;;;5004061;28;20065;-36
2022/04/10 11:47:35;;;;;;;2.33;2.13;;;7.30;66.10;;;;;;5004021;28;20808;-34
2022/04/10 11:50:02;;;;;;;3.35;2.05;;;7.40;64.60;;;;;;5002391;28;20069;-35
2022/04/10 11:52:28;;;;;;;1.92;1.80;;;7.50;69.50;;;;;;5002829;28;20025;-35
2022/04/10 11:54:53;;;;;;;3.92;2.20;;;7.50;63.70;;;;;;5002782;28;20038;-35
2022/04/10 11:57:19;;;;;;;2.85;2.00;;;7.60;71.90;;;;;;5002355;28;20026;-36
2022/04/10 11:59:45;;;;;;;1.73;1.63;;;8.10;70.30;;;;;;5004271;28;20018;-35
2022/04/10 12:02:12;;;;;;;4.13;1.92;;;8.30;58.40;;;;;;5005052;28;20038;-36
2022/04/10 12:04:39;;;;;;;2.33;2.10;;;8.10;58.90;;;;;;5002947;28;20030;-36
2022/04/10 12:07:13;;;;;;;3.28;2.45;;;7.80;58.60;;;;;;5004730;28;20136;-34
2022/04/10 12:09:42;;;;;;;1.40;1.30;;;7.90;63.80;;;;;;5007054;28;20503;-34
2022/04/10 12:12:08;;;;;;;3.25;2.25;;;7.90;63.30;;;;;;5003153;28;20041;-35
2022/04/10 12:14:34;;;;;;;1.42;1.35;;;7.70;60.50;;;;;;5001325;28;20026;-35
2022/04/10 12:17:00;;;;;;;1.52;1.40;;;7.30;71.40;;;;;;5003540;28;20057;-36
2022/04/10 12:19:30;;;;;;;2.22;2.03;;;7.00;88.40;;;;;;5003848;28;20033;-33
2022/04/10 12:21:55;;;;;;;1.80;1.70;;;7.00;90.40;;;;;;5004695;28;20038;-36
2022/04/10 12:24:21;;;;;;;2.58;1.73;;;6.90;89.60;;;;;;5004188;28;20034;-35
2022/04/10 12:26:50;;;;;;;2.50;2.30;;;7.00;90.50;;;;;;5002445;28;20073;-35
2022/04/10 12:29:17;;;;;;;2.90;2.15;;;7.00;91.30;;;;;;5003735;28;20121;-36
2022/04/10 12:31:45;;;;;;;2.65;2.28;;;7.20;88.80;;;;;;5003666;28;20057;-35
2022/04/10 12:34:13;;;;;;;2.45;2.00;;;7.10;86.30;;;;;;5000723;28;20018;-35
2022/04/10 12:36:50;;;;;;;2.50;2.13;;;7.30;87.00;;;;;;5006412;28;20053;-36
2022/04/10 12:39:26;;;;;;;3.83;2.50;;;7.40;84.30;;;;;;5004346;28;20041;-35
2022/04/10 12:41:59;;;;;;;2.40;2.20;;;7.50;87.90;;;;;;5004760;28;20110;-36
2022/04/10 12:44:25;;;;;;;2.58;2.08;;;7.50;76.80;;;;;;5005964;28;20383;-35
2022/04/10 12:46:51;;;;;;;2.33;1.67;;;7.60;79.10;;;;;;5002716;28;20113;-35
2022/04/10 12:49:17;;;;;;;1.63;1.52;;;7.90;75.00;;;;;;5003848;28;20125;-36
2022/04/10 12:51:52;;;;;;;3.35;2.10;;;7.80;70.40;;;;;;5003815;28;20096;-35
2022/04/10 12:54:18;;;;;;;5.47;2.92;;;7.80;77.40;;;;;;5004868;28;20093;-33
2022/04/10 12:56:44;;;;;;;2.45;2.10;;;7.80;78.40;;;;;;5002921;28;20038;-33
2022/04/10 12:59:10;;;;;;;2.22;2.00;;;8.10;82.90;;;;;;5001994;28;20083;-35
2022/04/10 13:01:36;;;;;;;2.50;1.92;;;7.80;71.50;;;;;;5003653;28;20033;-35
2022/04/10 13:04:03;;;;;;;2.70;1.77;;;7.70;76.30;;;;;;5002962;28;20036;-35